Time;durP1;ratioP1;P1;durP2;ratioP2;P2;SDS_P1;SDS_P2;PMS_P1;PMS_P2;Temp;Humidity;BMP_temperature;BMP_pressure;BME280_temperature;BME280_humidity;BME280_pressure;Samples;Min_cycle;Max_cycle;Signal;HPM_P1;HPM_P2
2021/04/04 00:00:18;;;;;;;4.40;1.80;;;3.20;99.90;;;;;;1914455;75;21166;-75
2021/04/04 00:02:44;;;;;;;2.35;1.10;;;3.10;99.90;;;;;;1907808;73;21571;-75
2021/04/04 00:05:11;;;;;;;2.20;1.45;;;3.10;99.90;;;;;;1909256;75;21084;-74
2021/04/04 00:07:37;;;;;;;1.65;1.12;;;3.10;99.90;;;;;;1908766;75;21084;-75
2021/04/04 00:10:03;;;;;;;2.10;1.22;;;3.00;99.90;;;;;;1915452;75;21201;-74
2021/04/04 00:12:29;;;;;;;2.50;1.30;;;2.90;99.90;;;;;;1914081;75;21165;-74
2021/04/04 00:14:55;;;;;;;11.25;1.32;;;2.90;99.90;;;;;;1911517;74;21053;-74
2021/04/04 00:17:21;;;;;;;1.95;1.60;;;2.90;99.90;;;;;;1908022;74;21076;-74
2021/04/04 00:19:47;;;;;;;1.72;1.40;;;2.80;99.90;;;;;;1913936;75;21194;-74
2021/04/04 00:22:13;;;;;;;1.67;1.20;;;2.70;99.90;;;;;;1908008;74;21464;-74
2021/04/04 00:24:40;;;;;;;1.92;1.40;;;2.70;99.90;;;;;;1911901;74;21582;-76
2021/04/04 00:27:06;;;;;;;1.37;1.00;;;2.70;99.90;;;;;;1908206;74;21561;-74
2021/04/04 00:29:32;;;;;;;1.45;1.05;;;2.60;99.90;;;;;;1906142;74;21068;-74
2021/04/04 00:31:58;;;;;;;1.62;1.30;;;2.60;99.90;;;;;;1906264;74;21112;-75
2021/04/04 00:34:24;;;;;;;2.20;1.10;;;2.60;99.90;;;;;;1912482;74;21142;-74
2021/04/04 00:36:50;;;;;;;5.55;1.60;;;2.50;99.90;;;;;;1910052;75;21084;-75
2021/04/04 00:39:16;;;;;;;3.00;1.22;;;2.50;99.90;;;;;;1907659;74;21114;-74
2021/04/04 00:41:42;;;;;;;3.08;1.57;;;2.50;99.90;;;;;;1912093;74;21088;-76
2021/04/04 00:44:08;;;;;;;5.92;1.57;;;2.50;99.90;;;;;;1906354;75;21079;-75
2021/04/04 00:46:35;;;;;;;6.60;1.47;;;2.50;99.90;;;;;;1908173;74;21150;-74
2021/04/04 00:49:01;;;;;;;2.30;1.37;;;2.50;99.90;;;;;;1911880;75;21109;-75
2021/04/04 00:51:27;;;;;;;2.20;1.32;;;2.40;99.90;;;;;;1916039;75;21277;-74
2021/04/04 00:53:53;;;;;;;12.25;1.62;;;2.40;99.90;;;;;;1912498;74;21123;-75
2021/04/04 00:56:19;;;;;;;2.70;1.60;;;2.40;99.90;;;;;;1914426;75;21557;-75
2021/04/04 00:58:45;;;;;;;3.27;1.45;;;2.30;99.90;;;;;;1909759;74;21496;-75
2021/04/04 01:01:11;;;;;;;2.90;1.40;;;2.30;99.90;;;;;;1880000;75;21123;-74
2021/04/04 01:03:37;;;;;;;2.17;1.10;;;2.30;99.90;;;;;;1907284;74;21158;-75
2021/04/04 01:06:07;;;;;;;3.33;1.40;;;2.30;99.90;;;;;;1916172;75;21045;-74
2021/04/04 01:08:31;;;;;;;1.45;1.17;;;2.20;99.90;;;;;;1909114;74;21525;-75
2021/04/04 01:10:57;;;;;;;5.28;1.22;;;2.30;99.90;;;;;;1912017;74;21480;-74
2021/04/04 01:13:24;;;;;;;6.50;1.22;;;2.20;99.90;;;;;;1909787;74;21614;-74
2021/04/04 01:15:50;;;;;;;3.80;1.40;;;2.20;99.90;;;;;;1911672;74;21072;-75
2021/04/04 01:18:18;;;;;;;5.12;1.67;;;2.20;99.90;;;;;;1903925;74;21158;-74
2021/04/04 01:20:44;;;;;;;9.13;1.52;;;2.20;99.90;;;;;;1908311;75;21482;-75
2021/04/04 01:23:10;;;;;;;3.37;1.30;;;2.10;99.90;;;;;;1908088;75;21520;-74
2021/04/04 01:25:36;;;;;;;1.62;1.15;;;2.10;99.90;;;;;;1911642;74;21228;-75
2021/04/04 01:28:02;;;;;;;5.60;1.50;;;2.00;99.90;;;;;;1911860;75;21135;-74
2021/04/04 01:30:28;;;;;;;4.83;1.50;;;1.90;99.90;;;;;;1908085;74;21081;-74
2021/04/04 01:32:54;;;;;;;2.43;1.27;;;1.90;99.90;;;;;;1908901;74;21133;-74
2021/04/04 01:35:20;;;;;;;1.70;1.15;;;1.90;99.90;;;;;;1904020;74;21179;-74
2021/04/04 01:37:46;;;;;;;2.37;1.30;;;1.90;99.90;;;;;;1908529;74;21142;-74
2021/04/04 01:40:13;;;;;;;2.70;1.35;;;2.00;99.90;;;;;;1910573;74;21092;-75
2021/04/04 01:42:39;;;;;;;2.20;1.05;;;1.90;99.90;;;;;;1909582;74;21468;-74
2021/04/04 01:45:05;;;;;;;7.12;1.80;;;1.90;99.90;;;;;;1904096;73;21488;-74
2021/04/04 01:47:31;;;;;;;5.20;1.30;;;2.00;99.90;;;;;;1910495;74;21425;-74
2021/04/04 01:49:57;;;;;;;4.83;1.32;;;1.90;99.90;;;;;;1907837;75;21080;-74
2021/04/04 01:52:23;;;;;;;3.30;1.25;;;1.90;99.90;;;;;;1906292;74;21174;-74
2021/04/04 01:54:49;;;;;;;3.50;1.62;;;1.80;99.90;;;;;;1908538;75;21083;-75
2021/04/04 01:57:15;;;;;;;8.13;1.60;;;1.80;99.90;;;;;;1912435;74;21084;-75
2021/04/04 01:59:42;;;;;;;3.62;1.40;;;1.70;99.90;;;;;;1913364;75;21218;-74
2021/04/04 02:02:08;;;;;;;3.40;1.35;;;1.80;99.90;;;;;;1910318;74;21115;-74
2021/04/04 02:04:35;;;;;;;2.92;1.30;;;1.80;99.90;;;;;;1911298;74;21088;-74
2021/04/04 02:07:01;;;;;;;3.08;1.02;;;1.70;99.90;;;;;;1910301;74;21083;-75
2021/04/04 02:09:27;;;;;;;2.30;1.05;;;1.80;99.90;;;;;;1909857;75;21197;-75
2021/04/04 02:11:54;;;;;;;2.50;1.22;;;1.80;99.90;;;;;;1908070;74;21161;-75
2021/04/04 02:14:20;;;;;;;3.33;1.35;;;1.70;99.90;;;;;;1910585;74;21080;-74
2021/04/04 02:16:46;;;;;;;2.65;1.70;;;1.70;99.90;;;;;;1911466;75;21157;-75
2021/04/04 02:19:12;;;;;;;4.87;1.17;;;1.60;99.90;;;;;;1911129;75;21076;-75
2021/04/04 02:21:38;;;;;;;6.28;1.70;;;1.60;99.90;;;;;;1908063;74;21091;-73
2021/04/04 02:24:04;;;;;;;9.70;1.72;;;1.60;99.90;;;;;;1908967;75;21087;-75
2021/04/04 02:26:30;;;;;;;4.00;1.82;;;1.50;99.90;;;;;;1913768;74;21052;-73
2021/04/04 02:28:56;;;;;;;4.00;2.00;;;1.50;99.90;;;;;;1909791;74;21502;-75
2021/04/04 02:31:22;;;;;;;5.60;1.50;;;1.50;99.90;;;;;;1907857;74;21460;-75
2021/04/04 02:33:49;;;;;;;2.42;1.37;;;1.50;99.90;;;;;;1909784;74;21488;-75
2021/04/04 02:36:15;;;;;;;1.35;1.27;;;1.50;99.90;;;;;;1910246;75;21092;-75
2021/04/04 02:38:41;;;;;;;2.98;1.32;;;1.40;99.90;;;;;;1910103;74;21464;-74
2021/04/04 02:41:07;;;;;;;3.92;1.70;;;1.40;99.90;;;;;;1908859;74;21441;-75
2021/04/04 02:43:33;;;;;;;7.08;1.70;;;1.40;99.90;;;;;;1910007;74;21559;-75
2021/04/04 02:46:00;;;;;;;3.20;1.90;;;1.40;99.90;;;;;;1905338;75;21084;-76
2021/04/04 02:48:26;;;;;;;1.87;1.40;;;1.40;99.90;;;;;;1907170;75;21161;-75
2021/04/04 02:50:52;;;;;;;1.67;1.40;;;1.30;99.90;;;;;;1910628;74;21152;-75
2021/04/04 02:53:18;;;;;;;10.30;1.65;;;1.30;99.90;;;;;;1907939;74;21052;-75
2021/04/04 02:55:44;;;;;;;3.67;2.25;;;1.30;99.90;;;;;;1910260;74;21087;-74
2021/04/04 02:58:10;;;;;;;3.98;1.55;;;1.20;99.90;;;;;;1909749;74;21083;-75
2021/04/04 03:00:36;;;;;;;3.42;1.95;;;1.20;99.90;;;;;;1909141;74;21209;-75
2021/04/04 03:03:03;;;;;;;3.27;1.80;;;1.20;99.90;;;;;;1907309;75;21493;-75
2021/04/04 03:05:30;;;;;;;5.95;1.42;;;1.30;99.90;;;;;;1911957;75;21096;-75
2021/04/04 03:07:56;;;;;;;2.65;1.70;;;1.20;99.90;;;;;;1908999;74;21509;-74
2021/04/04 03:10:22;;;;;;;2.00;1.70;;;1.20;99.90;;;;;;1914233;75;22738;-75
2021/04/04 03:12:48;;;;;;;12.50;1.75;;;1.20;99.90;;;;;;1910912;74;21682;-75
2021/04/04 03:15:14;;;;;;;3.42;1.30;;;1.20;99.90;;;;;;1912020;74;21170;-73
2021/04/04 03:17:41;;;;;;;4.33;2.02;;;1.20;99.90;;;;;;1913027;74;21096;-76
2021/04/04 03:20:10;;;;;;;2.15;1.62;;;1.10;99.90;;;;;;1910214;74;21095;-75
2021/04/04 03:22:35;;;;;;;6.42;2.00;;;1.10;99.90;;;;;;1912622;74;21182;-75
2021/04/04 03:25:02;;;;;;;8.80;2.72;;;1.00;99.90;;;;;;1909507;74;21122;-76
2021/04/04 03:27:28;;;;;;;4.12;2.27;;;1.00;99.90;;;;;;1911116;74;21068;-75
2021/04/04 03:29:54;;;;;;;3.83;2.20;;;1.00;99.90;;;;;;1907598;74;21251;-75
2021/04/04 03:32:20;;;;;;;2.20;1.70;;;1.00;99.90;;;;;;1910491;73;21087;-74
2021/04/04 03:34:46;;;;;;;5.83;1.75;;;1.00;99.90;;;;;;1913463;74;21566;-75
2021/04/04 03:37:12;;;;;;;3.98;1.72;;;0.90;99.90;;;;;;1910687;74;21499;-74
2021/04/04 03:39:38;;;;;;;3.67;1.62;;;1.00;99.90;;;;;;1911504;75;21154;-75
2021/04/04 03:42:04;;;;;;;2.40;1.52;;;0.90;99.90;;;;;;1908558;74;21088;-74
2021/04/04 03:44:31;;;;;;;3.40;1.67;;;0.90;99.90;;;;;;1908605;74;21044;-74
2021/04/04 03:46:57;;;;;;;6.87;1.72;;;0.90;99.90;;;;;;1908268;74;21091;-74
2021/04/04 03:49:23;;;;;;;1.65;1.12;;;0.90;99.90;;;;;;1913689;75;21132;-74
2021/04/04 03:51:49;;;;;;;2.10;1.40;;;0.80;99.90;;;;;;1907727;75;21153;-75
2021/04/04 03:54:16;;;;;;;1.37;1.27;;;0.90;99.90;;;;;;1910715;75;21092;-76
2021/04/04 03:56:42;;;;;;;2.62;1.90;;;0.80;99.90;;;;;;1912020;74;21088;-75
2021/04/04 03:59:08;;;;;;;10.65;1.60;;;0.90;99.90;;;;;;1905977;73;21149;-75
2021/04/04 04:01:34;;;;;;;7.97;1.75;;;0.80;99.90;;;;;;1907717;74;21132;-76
2021/04/04 04:04:02;;;;;;;3.95;2.25;;;0.70;99.90;;;;;;1907557;74;21057;-75
2021/04/04 04:06:28;;;;;;;2.83;1.82;;;0.70;99.90;;;;;;1904321;74;21247;-76
2021/04/04 04:08:54;;;;;;;13.95;2.47;;;0.60;99.90;;;;;;1908478;73;21087;-75
2021/04/04 04:11:20;;;;;;;3.35;2.05;;;0.60;99.90;;;;;;1902550;73;21153;-74
2021/04/04 04:13:46;;;;;;;12.35;2.60;;;0.60;99.90;;;;;;1899348;73;21096;-74
2021/04/04 04:16:12;;;;;;;7.70;2.92;;;0.60;99.90;;;;;;1904954;73;21465;-74
2021/04/04 04:18:38;;;;;;;6.28;2.47;;;0.60;99.90;;;;;;1911838;74;21554;-75
2021/04/04 04:21:04;;;;;;;4.15;2.08;;;0.60;99.90;;;;;;1905967;73;21630;-74
2021/04/04 04:23:30;;;;;;;3.55;2.20;;;0.70;99.90;;;;;;1903731;73;21085;-75
2021/04/04 04:25:57;;;;;;;4.80;2.27;;;0.70;99.90;;;;;;1900732;73;21146;-75
2021/04/04 04:28:23;;;;;;;6.15;2.45;;;0.70;99.90;;;;;;1911818;73;21137;-74
2021/04/04 04:30:49;;;;;;;3.80;2.40;;;0.70;99.90;;;;;;1900941;73;21138;-73
2021/04/04 04:33:15;;;;;;;5.70;2.27;;;0.60;99.90;;;;;;1892525;73;21060;-73
2021/04/04 04:35:41;;;;;;;7.22;2.83;;;0.60;99.90;;;;;;1905715;73;21105;-74
2021/04/04 04:38:07;;;;;;;12.45;2.85;;;0.60;99.90;;;;;;1910631;73;21093;-74
2021/04/04 04:40:33;;;;;;;2.83;2.33;;;0.60;99.90;;;;;;1898870;73;21146;-75
2021/04/04 04:42:59;;;;;;;9.70;2.50;;;0.60;99.90;;;;;;1900658;73;21158;-75
2021/04/04 04:45:26;;;;;;;6.20;2.60;;;0.50;99.90;;;;;;1897471;73;21091;-75
2021/04/04 04:47:52;;;;;;;6.28;2.55;;;0.50;99.90;;;;;;1899915;73;21213;-76
2021/04/04 04:50:19;;;;;;;3.47;2.08;;;0.50;99.90;;;;;;1898881;73;21084;-75
2021/04/04 04:52:45;;;;;;;3.33;1.95;;;0.50;99.90;;;;;;1906556;74;21552;-74
2021/04/04 04:55:11;;;;;;;7.10;2.80;;;0.40;99.90;;;;;;1902887;74;21134;-77
2021/04/04 04:57:38;;;;;;;4.28;2.33;;;0.40;99.90;;;;;;1916587;73;21452;-74
2021/04/04 05:00:04;;;;;;;5.20;2.27;;;0.30;99.90;;;;;;1904696;74;21076;-73
2021/04/04 05:02:30;;;;;;;8.60;2.00;;;0.30;99.90;;;;;;1903504;73;21194;-74
2021/04/04 05:04:56;;;;;;;1.70;1.60;;;0.30;99.90;;;;;;1906439;74;21194;-74
2021/04/04 05:07:22;;;;;;;3.45;2.00;;;0.30;99.90;;;;;;1910062;73;21088;-74
2021/04/04 05:09:48;;;;;;;3.27;2.15;;;0.40;99.90;;;;;;1893056;73;21080;-74
2021/04/04 05:12:14;;;;;;;4.90;2.47;;;0.40;99.90;;;;;;1898178;73;21158;-75
2021/04/04 05:14:40;;;;;;;4.92;2.40;;;0.30;99.90;;;;;;1900266;74;21146;-75
2021/04/04 05:17:07;;;;;;;4.15;2.40;;;0.40;99.90;;;;;;1903383;74;21052;-74
2021/04/04 05:19:33;;;;;;;4.70;2.92;;;0.40;99.90;;;;;;1912832;73;21084;-74
2021/04/04 05:21:59;;;;;;;3.42;2.12;;;0.30;99.90;;;;;;1902912;74;21084;-73
2021/04/04 05:24:25;;;;;;;3.25;2.33;;;0.40;99.90;;;;;;1905301;74;21215;-74
2021/04/04 05:26:51;;;;;;;8.08;2.37;;;0.50;99.90;;;;;;1913464;74;21145;-75
2021/04/04 05:29:18;;;;;;;3.77;1.98;;;0.50;99.90;;;;;;1902024;73;21081;-74
2021/04/04 05:31:44;;;;;;;4.92;2.60;;;0.50;99.90;;;;;;1900784;74;21191;-73
2021/04/04 05:34:10;;;;;;;5.30;2.12;;;0.50;99.90;;;;;;1907923;74;21150;-74
2021/04/04 05:36:36;;;;;;;7.33;3.42;;;0.60;99.90;;;;;;1892238;73;21143;-73
2021/04/04 05:39:02;;;;;;;5.65;3.10;;;0.70;99.90;;;;;;1893387;73;21131;-72
2021/04/04 05:41:28;;;;;;;4.03;2.65;;;0.60;99.90;;;;;;1899185;73;21149;-73
2021/04/04 05:43:54;;;;;;;6.17;2.75;;;0.70;99.90;;;;;;1904199;73;21153;-72
2021/04/04 05:46:21;;;;;;;6.50;3.05;;;0.70;99.90;;;;;;1908613;74;21087;-72
2021/04/04 05:48:52;;;;;;;4.80;2.80;;;0.70;99.90;;;;;;1906178;73;21062;-71
2021/04/04 05:51:15;;;;;;;4.62;2.50;;;0.80;99.90;;;;;;1893787;73;21532;-71
2021/04/04 05:53:41;;;;;;;13.80;3.42;;;0.80;99.90;;;;;;1908575;73;21080;-72
2021/04/04 05:56:07;;;;;;;6.30;3.33;;;0.80;99.90;;;;;;1911408;73;21052;-72
2021/04/04 05:58:33;;;;;;;6.20;2.55;;;0.90;99.90;;;;;;1908305;74;21149;-72
2021/04/04 06:00:59;;;;;;;4.70;2.85;;;0.90;99.90;;;;;;1903468;74;21085;-71
2021/04/04 06:03:25;;;;;;;7.55;2.80;;;1.00;99.90;;;;;;1896363;73;21076;-72
2021/04/04 06:05:51;;;;;;;10.48;2.80;;;1.00;99.90;;;;;;1909135;74;21076;-72
2021/04/04 06:08:18;;;;;;;4.55;2.62;;;1.00;99.90;;;;;;1909017;74;21095;-72
2021/04/04 06:10:44;;;;;;;10.78;3.40;;;1.00;99.90;;;;;;1910681;74;21084;-71
2021/04/04 06:13:10;;;;;;;5.78;2.90;;;1.00;99.90;;;;;;1896624;74;21095;-71
2021/04/04 06:15:38;;;;;;;7.55;2.92;;;1.10;99.90;;;;;;1906831;74;21219;-72
2021/04/04 06:18:05;;;;;;;5.35;3.52;;;1.20;99.90;;;;;;1916127;74;21156;-72
2021/04/04 06:20:39;;;;;;;4.53;2.72;;;1.20;99.90;;;;;;1898591;73;21049;-72
2021/04/04 06:23:02;;;;;;;7.80;2.37;;;1.30;99.90;;;;;;1915137;73;21153;-72
2021/04/04 06:25:28;;;;;;;4.67;2.87;;;1.30;99.90;;;;;;1905519;74;21045;-71
2021/04/04 06:27:54;;;;;;;11.95;2.70;;;1.40;99.90;;;;;;1900347;73;21175;-71
2021/04/04 06:31:02;;;;;;;4.35;2.72;;;1.50;99.90;;;;;;1905744;73;21141;-71
2021/04/04 06:32:51;;;;;;;2.92;2.67;;;1.50;99.90;;;;;;1891995;74;21091;-72
2021/04/04 06:35:17;;;;;;;3.12;2.67;;;1.60;99.90;;;;;;1907919;74;21049;-71
2021/04/04 06:37:44;;;;;;;4.80;3.47;;;1.60;99.90;;;;;;1899724;73;21072;-71
2021/04/04 06:40:10;;;;;;;7.90;2.87;;;1.80;99.90;;;;;;1909857;73;21060;-71
2021/04/04 06:42:36;;;;;;;5.40;2.60;;;1.90;99.90;;;;;;1905636;73;21079;-72
2021/04/04 06:45:02;;;;;;;8.63;2.95;;;2.00;99.90;;;;;;1902910;74;21092;-73
2021/04/04 06:47:28;;;;;;;5.55;3.10;;;2.20;99.90;;;;;;1893057;73;21088;-70
2021/04/04 06:49:54;;;;;;;4.10;2.85;;;2.20;99.90;;;;;;1911720;74;21123;-72
2021/04/04 06:52:21;;;;;;;4.30;2.85;;;2.30;99.90;;;;;;1904859;74;21096;-73
2021/04/04 06:54:47;;;;;;;8.53;3.27;;;2.40;99.90;;;;;;1907155;73;21092;-72
2021/04/04 06:57:13;;;;;;;6.83;2.92;;;2.50;99.90;;;;;;1911816;73;21146;-72
2021/04/04 06:59:39;;;;;;;5.92;2.40;;;2.60;99.90;;;;;;1909302;74;21161;-72
2021/04/04 07:02:05;;;;;;;7.40;2.67;;;2.80;99.90;;;;;;1913502;73;21126;-72
2021/04/04 07:04:32;;;;;;;7.10;3.00;;;2.90;99.90;;;;;;1908785;73;21161;-72
2021/04/04 07:06:58;;;;;;;11.55;3.25;;;3.10;99.90;;;;;;1905569;73;21088;-72
2021/04/04 07:09:24;;;;;;;4.70;3.08;;;3.20;99.90;;;;;;1895866;74;21272;-72
2021/04/04 07:11:50;;;;;;;6.75;2.58;;;3.30;99.90;;;;;;1911446;73;21044;-72
2021/04/04 07:14:17;;;;;;;4.28;2.80;;;3.20;99.90;;;;;;1894869;73;21081;-72
2021/04/04 07:16:43;;;;;;;8.53;3.12;;;3.30;99.90;;;;;;1917608;74;21205;-73
2021/04/04 07:19:09;;;;;;;7.10;2.45;;;3.50;99.90;;;;;;1893795;73;21146;-73
2021/04/04 07:21:35;;;;;;;4.55;3.00;;;3.50;99.90;;;;;;1902605;73;21530;-73
2021/04/04 07:24:01;;;;;;;13.13;3.40;;;3.60;99.90;;;;;;1907133;74;21171;-73
2021/04/04 07:26:27;;;;;;;6.30;3.00;;;3.80;99.90;;;;;;1900609;73;21075;-73
2021/04/04 07:28:54;;;;;;;9.83;3.02;;;3.90;99.90;;;;;;1905032;73;21214;-73
2021/04/04 07:31:20;;;;;;;8.05;3.58;;;4.10;99.90;;;;;;1906516;74;21119;-73
2021/04/04 07:33:46;;;;;;;7.75;3.47;;;4.20;99.90;;;;;;1907387;73;21091;-72
2021/04/04 07:36:12;;;;;;;6.90;3.40;;;4.30;99.90;;;;;;1898581;73;21080;-73
2021/04/04 07:38:38;;;;;;;7.05;3.17;;;4.40;99.90;;;;;;1908230;73;21154;-71
2021/04/04 07:41:04;;;;;;;8.65;3.25;;;4.40;99.90;;;;;;1914989;73;21158;-70
2021/04/04 07:43:30;;;;;;;5.47;3.50;;;4.60;99.90;;;;;;1906196;74;21166;-71
2021/04/04 07:45:56;;;;;;;4.62;3.27;;;4.90;99.90;;;;;;1908500;74;21096;-71
2021/04/04 07:48:23;;;;;;;4.15;3.05;;;5.10;99.90;;;;;;1913354;74;21446;-71
2021/04/04 07:50:51;;;;;;;5.37;2.83;;;5.10;99.90;;;;;;1902972;73;21087;-71
2021/04/04 07:53:17;;;;;;;5.40;2.90;;;5.40;99.90;;;;;;1903050;73;21096;-71
2021/04/04 07:55:43;;;;;;;4.83;2.58;;;5.60;99.90;;;;;;1900660;73;21048;-70
2021/04/04 07:58:09;;;;;;;4.67;2.37;;;5.90;99.90;;;;;;1897554;74;21153;-72
2021/04/04 08:00:36;;;;;;;8.55;2.95;;;5.80;99.90;;;;;;1904663;73;21076;-71
2021/04/04 08:03:02;;;;;;;8.90;2.72;;;5.90;99.90;;;;;;1907535;74;21089;-72
2021/04/04 08:05:28;;;;;;;7.20;2.95;;;6.00;99.90;;;;;;1907364;73;21085;-72
2021/04/04 08:07:54;;;;;;;4.45;2.67;;;6.20;99.90;;;;;;1899447;73;21037;-73
2021/04/04 08:10:20;;;;;;;4.72;2.58;;;6.30;99.90;;;;;;1905593;74;21082;-74
2021/04/04 08:12:46;;;;;;;6.40;2.52;;;6.90;99.90;;;;;;1901150;74;21085;-72
2021/04/04 08:15:12;;;;;;;5.30;2.85;;;7.20;99.90;;;;;;1915453;73;21157;-72
2021/04/04 08:17:38;;;;;;;4.33;3.12;;;7.90;99.90;;;;;;1907324;74;21214;-71
2021/04/04 08:20:04;;;;;;;5.87;3.05;;;8.00;99.90;;;;;;1911734;73;21092;-72
2021/04/04 08:22:31;;;;;;;3.50;2.80;;;7.90;99.90;;;;;;1908192;74;21049;-72
2021/04/04 08:24:57;;;;;;;4.00;2.42;;;8.20;99.90;;;;;;1907452;73;21478;-72
2021/04/04 08:27:23;;;;;;;6.28;2.85;;;8.90;99.90;;;;;;1914082;74;21500;-72
2021/04/04 08:29:51;;;;;;;8.88;2.60;;;9.60;99.90;;;;;;1911423;74;21689;-72
2021/04/04 08:32:17;;;;;;;4.97;2.60;;;10.00;99.90;;;;;;1902293;73;21088;-73
2021/04/04 08:34:43;;;;;;;5.53;2.65;;;10.20;99.90;;;;;;1895904;73;21096;-73
2021/04/04 08:37:10;;;;;;;7.20;2.87;;;10.50;99.90;;;;;;1911332;74;21103;-71
2021/04/04 08:39:36;;;;;;;8.80;3.15;;;10.50;99.90;;;;;;1908025;73;21146;-71
2021/04/04 08:42:02;;;;;;;5.37;2.42;;;10.90;99.90;;;;;;1900994;74;21092;-72
2021/04/04 08:44:28;;;;;;;5.00;2.30;;;11.40;99.90;;;;;;1904570;74;21146;-72
2021/04/04 08:46:54;;;;;;;6.92;2.27;;;10.80;99.90;;;;;;1901943;73;21088;-69
2021/04/04 08:49:20;;;;;;;4.58;2.62;;;10.80;99.90;;;;;;1909697;74;21141;-68
2021/04/04 08:51:46;;;;;;;4.65;2.37;;;11.10;99.90;;;;;;1909442;73;21071;-71
2021/04/04 08:54:13;;;;;;;6.15;2.40;;;11.10;99.90;;;;;;1908802;73;21093;-71
2021/04/04 08:56:39;;;;;;;10.60;2.62;;;11.80;99.90;;;;;;1910630;74;21606;-71
2021/04/04 08:59:05;;;;;;;6.37;2.72;;;11.30;99.90;;;;;;1905020;74;21484;-71
2021/04/04 09:01:31;;;;;;;7.78;2.15;;;11.40;99.90;;;;;;1910153;74;21550;-71
2021/04/04 09:03:57;;;;;;;4.33;2.25;;;11.60;99.90;;;;;;1903609;73;21531;-71
2021/04/04 09:06:23;;;;;;;4.60;2.30;;;11.20;99.90;;;;;;1905242;74;21045;-72
2021/04/04 09:08:49;;;;;;;4.25;1.98;;;11.30;99.90;;;;;;1915139;73;21212;-71
2021/04/04 09:11:16;;;;;;;6.22;2.45;;;12.10;99.90;;;;;;1906843;73;21214;-71
2021/04/04 09:13:42;;;;;;;1.95;1.60;;;12.30;99.90;;;;;;1903124;73;21084;-72
2021/04/04 09:16:08;;;;;;;1.95;1.70;;;12.60;99.90;;;;;;1906137;74;21057;-72
2021/04/04 09:18:34;;;;;;;3.40;1.70;;;12.90;99.90;;;;;;1904523;73;21142;-72
2021/04/04 09:21:00;;;;;;;5.75;2.35;;;12.70;99.90;;;;;;1910397;74;21096;-72
2021/04/04 09:23:26;;;;;;;6.03;2.22;;;12.30;99.90;;;;;;1904129;73;21080;-74
2021/04/04 09:25:52;;;;;;;4.97;1.92;;;12.30;99.90;;;;;;1908217;74;21053;-72
2021/04/04 09:28:19;;;;;;;6.60;1.87;;;12.50;99.90;;;;;;1910833;74;21076;-73
2021/04/04 09:30:48;;;;;;;5.60;2.20;;;12.60;99.30;;;;;;1903851;73;21150;-72
2021/04/04 09:33:13;;;;;;;2.20;1.85;;;12.20;99.40;;;;;;1903660;73;21111;-73
2021/04/04 09:35:39;;;;;;;5.58;2.33;;;11.90;99.10;;;;;;1903905;73;21085;-73
2021/04/04 09:38:05;;;;;;;7.80;2.20;;;11.30;99.90;;;;;;1908675;73;21177;-72
2021/04/04 09:40:31;;;;;;;4.50;1.95;;;10.70;99.90;;;;;;1909954;73;21093;-73
2021/04/04 09:42:57;;;;;;;3.20;1.95;;;10.70;99.90;;;;;;1901424;73;21500;-72
2021/04/04 09:45:26;;;;;;;4.40;1.80;;;10.40;99.90;;;;;;1910183;73;21433;-72
2021/04/04 09:47:56;;;;;;;5.58;1.90;;;10.60;99.90;;;;;;1907900;74;21088;-72
2021/04/04 09:50:19;;;;;;;3.05;1.40;;;10.90;99.60;;;;;;1904369;73;21198;-73
2021/04/04 09:52:45;;;;;;;2.85;1.80;;;10.80;99.00;;;;;;1912559;73;21146;-73
2021/04/04 09:55:14;;;;;;;3.52;1.60;;;10.60;98.40;;;;;;1908719;74;21049;-73
2021/04/04 09:57:39;;;;;;;3.20;1.85;;;10.70;99.00;;;;;;1902081;74;21084;-73
2021/04/04 10:00:05;;;;;;;2.45;1.37;;;10.90;99.30;;;;;;1897571;73;21190;-73
2021/04/04 10:02:31;;;;;;;4.28;1.75;;;10.90;98.30;;;;;;1902194;74;21268;-73
2021/04/04 10:04:57;;;;;;;5.95;1.87;;;11.30;98.20;;;;;;1910351;73;21095;-71
2021/04/04 10:07:23;;;;;;;4.05;1.80;;;11.50;97.20;;;;;;1904119;74;21089;-71
2021/04/04 10:09:50;;;;;;;3.17;1.80;;;11.60;95.80;;;;;;1900230;73;21142;-73
2021/04/04 10:12:16;;;;;;;3.37;2.10;;;11.30;95.80;;;;;;1898538;73;21088;-73
2021/04/04 10:14:42;;;;;;;2.67;1.67;;;11.30;95.40;;;;;;1895851;73;21080;-73
2021/04/04 10:17:08;;;;;;;2.02;1.57;;;11.30;95.00;;;;;;1896084;74;21096;-72
2021/04/04 10:19:34;;;;;;;2.52;1.77;;;11.10;95.80;;;;;;1909400;74;21225;-72
2021/04/04 10:22:01;;;;;;;2.95;1.67;;;11.20;97.40;;;;;;1905455;74;21684;-73
2021/04/04 10:24:27;;;;;;;4.62;2.00;;;11.50;96.40;;;;;;1911040;73;21542;-72
2021/04/04 10:26:53;;;;;;;3.90;1.87;;;11.30;96.10;;;;;;1902972;73;21484;-72
2021/04/04 10:29:19;;;;;;;3.95;2.12;;;11.40;95.80;;;;;;1898801;74;21478;-73
2021/04/04 10:31:46;;;;;;;3.33;1.70;;;11.40;95.80;;;;;;1893059;74;21087;-73
2021/04/04 10:34:12;;;;;;;4.05;1.82;;;11.60;95.50;;;;;;1910343;74;21502;-73
2021/04/04 10:36:38;;;;;;;2.62;1.75;;;11.90;95.00;;;;;;1912361;73;21563;-73
2021/04/04 10:39:04;;;;;;;3.35;1.67;;;12.20;93.40;;;;;;1906231;73;21511;-73
2021/04/04 10:41:31;;;;;;;2.92;1.90;;;12.20;93.00;;;;;;1906455;73;21570;-73
2021/04/04 10:43:57;;;;;;;2.62;1.52;;;12.90;92.50;;;;;;1896388;73;21081;-73
2021/04/04 10:46:23;;;;;;;3.67;1.80;;;13.20;90.90;;;;;;1895504;74;21092;-73
2021/04/04 10:48:49;;;;;;;2.27;1.60;;;13.10;91.00;;;;;;1893099;73;21084;-73
2021/04/04 10:51:44;;;;;;;2.62;1.40;;;13.20;90.30;;;;;;2053042;69;22191;-72
2021/04/04 10:54:10;;;;;;;6.20;1.60;;;13.50;87.20;;;;;;2009039;70;21052;-71
2021/04/04 10:56:36;;;;;;;2.27;1.40;;;13.00;88.90;;;;;;2015555;70;21043;-72
2021/04/04 10:59:03;;;;;;;3.50;1.62;;;13.40;87.20;;;;;;2017796;71;21029;-70
2021/04/04 11:01:29;;;;;;;3.50;1.30;;;13.20;85.90;;;;;;2010813;70;21066;-71
2021/04/04 11:03:55;;;;;;;1.77;1.20;;;12.90;85.80;;;;;;2010814;70;21460;-71
2021/04/04 11:06:21;;;;;;;3.70;1.15;;;13.50;82.50;;;;;;2006922;70;21492;-72
2021/04/04 11:08:48;;;;;;;3.70;1.72;;;14.10;80.40;;;;;;1965902;73;21464;-72
2021/04/04 11:11:14;;;;;;;1.65;1.25;;;14.50;76.80;;;;;;2002294;70;21486;-71
2021/04/04 11:13:40;;;;;;;1.37;1.17;;;13.30;76.20;;;;;;1975175;72;21463;-71
2021/04/04 11:16:06;;;;;;;2.10;1.22;;;13.30;77.90;;;;;;1927481;73;21067;-72
2021/04/04 11:18:32;;;;;;;4.67;1.47;;;14.00;75.50;;;;;;2010529;70;21106;-71
2021/04/04 11:20:58;;;;;;;3.87;1.20;;;14.40;74.10;;;;;;2009711;70;21128;-72
2021/04/04 11:23:24;;;;;;;2.65;1.47;;;14.80;73.60;;;;;;2016067;70;21079;-72
2021/04/04 11:25:51;;;;;;;3.87;1.57;;;15.40;71.60;;;;;;1964965;72;21048;-73
2021/04/04 11:28:17;;;;;;;3.65;1.32;;;15.90;70.10;;;;;;2002230;70;21454;-72
2021/04/04 11:30:43;;;;;;;5.83;1.55;;;15.90;69.50;;;;;;2016003;70;21491;-72
2021/04/04 11:33:09;;;;;;;8.05;1.77;;;15.80;67.60;;;;;;2009263;70;21032;-72
2021/04/04 11:35:35;;;;;;;2.42;1.60;;;15.50;69.40;;;;;;1968482;73;21052;-71
2021/04/04 11:38:01;;;;;;;3.52;1.40;;;16.00;66.20;;;;;;2010720;70;21206;-71
2021/04/04 11:40:28;;;;;;;1.27;0.95;;;16.10;66.00;;;;;;2006785;70;21125;-71
2021/04/04 11:42:54;;;;;;;1.95;1.30;;;16.60;65.30;;;;;;2010584;71;21093;-71
2021/04/04 11:45:20;;;;;;;2.00;1.30;;;17.00;61.20;;;;;;2006238;70;21071;-72
2021/04/04 11:47:46;;;;;;;3.37;1.47;;;16.70;60.60;;;;;;2015870;70;21012;-71
2021/04/04 11:50:13;;;;;;;7.12;1.45;;;16.30;61.00;;;;;;2020086;70;21051;-72
2021/04/04 11:52:39;;;;;;;2.87;1.07;;;16.40;60.10;;;;;;1964232;73;21040;-71
2021/04/04 11:55:05;;;;;;;8.10;1.50;;;15.20;67.10;;;;;;2005130;70;21140;-72
2021/04/04 11:57:31;;;;;;;3.25;1.40;;;16.10;62.70;;;;;;1964307;72;21203;-71
2021/04/04 11:59:58;;;;;;;1.60;1.10;;;16.60;60.50;;;;;;2008830;70;21113;-73
2021/04/04 12:02:24;;;;;;;2.00;1.20;;;16.80;59.90;;;;;;1970720;72;21480;-73
2021/04/04 12:04:50;;;;;;;3.87;1.47;;;15.90;61.70;;;;;;1930188;74;21117;-73
2021/04/04 12:07:16;;;;;;;2.67;1.60;;;16.10;63.10;;;;;;2009753;71;21042;-71
2021/04/04 12:09:44;;;;;;;3.17;1.30;;;16.40;60.40;;;;;;2006496;70;21113;-71
2021/04/04 12:12:10;;;;;;;2.12;1.10;;;15.60;61.50;;;;;;2005209;70;21502;-73
2021/04/04 12:14:36;;;;;;;3.98;1.27;;;15.40;64.60;;;;;;2014088;70;21515;-72
2021/04/04 12:17:02;;;;;;;3.40;1.45;;;15.90;61.30;;;;;;2007526;70;21537;-72
2021/04/04 12:19:29;;;;;;;3.20;1.47;;;16.30;60.00;;;;;;2002615;70;21529;-72
2021/04/04 12:21:55;;;;;;;1.65;0.82;;;16.80;59.20;;;;;;1971074;73;21753;-72
2021/04/04 12:24:21;;;;;;;4.12;1.27;;;16.90;58.30;;;;;;2009904;70;21055;-71
2021/04/04 12:26:48;;;;;;;1.52;1.20;;;16.40;59.80;;;;;;2007246;70;21104;-73
2021/04/04 12:29:14;;;;;;;1.60;1.40;;;16.90;58.80;;;;;;2012523;70;21051;-72
2021/04/04 12:31:40;;;;;;;3.02;1.42;;;17.50;57.50;;;;;;2007270;70;21046;-73
2021/04/04 12:34:07;;;;;;;2.15;1.20;;;17.70;56.50;;;;;;2012352;70;21157;-73
2021/04/04 12:36:33;;;;;;;3.72;1.30;;;17.10;57.40;;;;;;1971880;72;21113;-72
2021/04/04 12:39:00;;;;;;;5.45;1.25;;;18.10;58.00;;;;;;1930417;73;21054;-73
2021/04/04 12:41:27;;;;;;;4.08;1.17;;;18.20;55.20;;;;;;2009673;71;21121;-72
2021/04/04 12:43:53;;;;;;;6.28;1.37;;;18.20;55.20;;;;;;2002543;70;21489;-73
2021/04/04 12:46:19;;;;;;;2.75;1.32;;;18.50;54.40;;;;;;2013315;70;21430;-73